createdAt,value
2018-08-20T00:00:18.560Z,96.40
2018-08-20T00:02:46.960Z,96.50
2018-08-20T00:05:15.377Z,96.60
2018-08-20T00:07:43.921Z,96.60
2018-08-20T00:10:13.416Z,96.70
2018-08-20T00:12:42.132Z,96.70
2018-08-20T00:15:10.699Z,96.80
2018-08-20T00:17:39.204Z,96.80
2018-08-20T00:20:10.080Z,96.80
2018-08-20T00:22:38.819Z,96.90
2018-08-20T00:25:19.302Z,97.00
2018-08-20T00:27:48.568Z,97.10
2018-08-20T00:30:18.288Z,97.10
2018-08-20T00:32:48.089Z,97.00
2018-08-20T00:35:24.523Z,97.10
2018-08-20T00:38:03.092Z,97.10
2018-08-20T00:40:33.780Z,97.10
2018-08-20T00:43:02.304Z,97.10
2018-08-20T00:45:30.770Z,97.00
2018-08-20T00:47:59.303Z,97.00
2018-08-20T00:50:27.713Z,97.00
2018-08-20T00:52:56.168Z,96.80
2018-08-20T00:55:24.631Z,96.90
2018-08-20T00:57:53.012Z,96.80
2018-08-20T01:00:21.399Z,96.90
2018-08-20T01:02:49.840Z,97.00
2018-08-20T01:05:18.452Z,97.00
2018-08-20T01:07:47.362Z,97.00
2018-08-20T01:10:15.904Z,97.10
2018-08-20T01:12:44.557Z,97.10
2018-08-20T01:15:13.426Z,97.10
2018-08-20T01:17:42.003Z,97.10
2018-08-20T01:20:11.636Z,97.10
2018-08-20T01:22:43.261Z,97.20
2018-08-20T01:25:13.220Z,97.10
2018-08-20T01:27:48.979Z,97.00
2018-08-20T01:30:17.950Z,97.00
2018-08-20T01:33:06.730Z,97.40
2018-08-20T01:35:35.887Z,97.20
2018-08-20T01:38:04.559Z,97.10
2018-08-20T01:40:33.489Z,97.20
2018-08-20T01:43:01.966Z,97.20
2018-08-20T01:45:30.365Z,97.20
2018-08-20T01:47:58.843Z,97.20
2018-08-20T01:50:27.220Z,97.10
2018-08-20T01:52:55.606Z,97.10
2018-08-20T01:55:23.957Z,97.20
2018-08-20T01:57:52.267Z,97.00
2018-08-20T02:00:20.575Z,97.00
2018-08-20T02:02:55.645Z,97.00
2018-08-20T02:05:24.344Z,97.00
2018-08-20T02:07:52.763Z,97.00
2018-08-20T02:10:21.110Z,97.00
2018-08-20T02:12:49.550Z,96.90
2018-08-20T02:15:17.882Z,97.00
2018-08-20T02:17:46.200Z,96.90
2018-08-20T02:20:14.487Z,96.80
2018-08-20T02:22:42.900Z,96.90
2018-08-20T02:25:11.234Z,96.80
2018-08-20T02:27:50.166Z,96.80
2018-08-20T02:30:18.482Z,96.70
2018-08-20T02:32:46.776Z,96.70
2018-08-20T02:35:15.329Z,97.10
2018-08-20T02:37:46.649Z,97.00
2018-08-20T02:40:17.089Z,96.90
2018-08-20T02:42:45.497Z,96.90
2018-08-20T02:45:17.328Z,96.90
2018-08-20T02:47:46.430Z,97.00
2018-08-20T02:50:15.220Z,97.00
2018-08-20T02:52:44.427Z,97.10
2018-08-20T02:55:12.795Z,97.10
2018-08-20T02:57:41.138Z,97.10
2018-08-20T03:00:12.439Z,97.00
2018-08-20T03:02:47.221Z,97.10
2018-08-20T03:05:19.248Z,97.10
2018-08-20T03:07:51.911Z,97.10
2018-08-20T03:10:20.261Z,97.00
2018-08-20T03:12:49.788Z,97.00
2018-08-20T03:15:18.193Z,96.90
2018-08-20T03:17:46.662Z,97.00
2018-08-20T03:20:14.959Z,97.00
2018-08-20T03:22:46.756Z,96.70
2018-08-20T03:25:15.555Z,96.70
2018-08-20T03:27:43.841Z,96.60
2018-08-20T03:30:12.171Z,96.50
2018-08-20T03:32:49.833Z,96.30
2018-08-20T03:35:18.142Z,96.30
2018-08-20T03:37:46.516Z,96.40
2018-08-20T03:40:14.846Z,96.30
2018-08-20T03:42:43.227Z,96.30
2018-08-20T03:45:11.807Z,96.30
2018-08-20T03:47:40.749Z,96.20
2018-08-20T03:50:11.740Z,96.20
2018-08-20T03:52:40.054Z,96.20
2018-08-20T03:55:08.574Z,96.10
2018-08-20T03:57:37.326Z,96.10
2018-08-20T04:00:06.007Z,96.00
2018-08-20T04:02:34.368Z,96.10
2018-08-20T04:05:02.670Z,96.00
2018-08-20T04:07:30.976Z,96.00
2018-08-20T04:09:59.275Z,95.80
2018-08-20T04:12:27.574Z,95.80
2018-08-20T04:14:55.854Z,95.90
2018-08-20T04:17:24.115Z,95.70
2018-08-20T04:19:53.374Z,95.60
2018-08-20T04:22:21.623Z,95.40
2018-08-20T04:24:50.366Z,95.40
2018-08-20T04:27:18.749Z,95.20
2018-08-20T04:29:47.065Z,95.00
2018-08-20T04:32:15.377Z,94.90
2018-08-20T04:34:43.649Z,94.70
2018-08-20T04:37:12.166Z,94.80
2018-08-20T04:39:40.472Z,94.70
2018-08-20T04:42:08.825Z,94.90
2018-08-20T04:44:37.104Z,94.70
2018-08-20T04:47:05.582Z,94.80
2018-08-20T04:49:33.854Z,94.90
2018-08-20T04:52:08.842Z,94.90
2018-08-20T04:54:41.629Z,95.00
2018-08-20T04:57:19.196Z,94.90
2018-08-20T04:59:52.665Z,95.00
2018-08-20T05:02:21.959Z,95.00
2018-08-20T05:04:50.333Z,94.90
2018-08-20T05:07:18.587Z,95.00
2018-08-20T05:09:46.992Z,94.90
2018-08-20T05:12:19.770Z,94.90
2018-08-20T05:14:48.527Z,94.90
2018-08-20T05:17:16.956Z,94.80
2018-08-20T05:19:45.277Z,94.70
2018-08-20T05:22:13.570Z,94.60
2018-08-20T05:24:41.843Z,94.40
2018-08-20T05:27:18.006Z,94.40
2018-08-20T05:29:46.360Z,94.50
2018-08-20T05:32:14.635Z,94.30
2018-08-20T05:34:49.786Z,94.40
2018-08-20T05:37:18.289Z,94.30
2018-08-20T05:39:46.627Z,94.30
2018-08-20T05:42:15.118Z,94.20
2018-08-20T05:44:43.415Z,94.20
2018-08-20T05:47:14.272Z,94.20
2018-08-20T05:49:43.574Z,94.20
2018-08-20T05:52:12.194Z,94.40
2018-08-20T05:54:47.740Z,94.20
2018-08-20T05:57:18.898Z,94.30
2018-08-20T05:59:47.544Z,94.10
2018-08-20T06:02:16.730Z,94.00
2018-08-20T06:04:45.881Z,94.10
2018-08-20T06:07:22.376Z,94.10
2018-08-20T06:09:52.231Z,94.00
2018-08-20T06:12:23.553Z,93.80
2018-08-20T06:14:52.031Z,93.60
2018-08-20T06:17:22.520Z,94.00
2018-08-20T06:19:50.942Z,93.50
2018-08-20T06:22:19.210Z,93.30
2018-08-20T06:24:47.519Z,93.50
2018-08-20T06:27:15.854Z,93.10
2018-08-20T06:29:44.681Z,93.10
2018-08-20T06:32:12.982Z,93.10
2018-08-20T06:34:42.238Z,92.60
2018-08-20T06:37:14.716Z,92.50
2018-08-20T06:39:51.872Z,92.60
2018-08-20T06:42:26.985Z,92.50
2018-08-20T06:44:56.423Z,92.20
2018-08-20T06:47:29.235Z,92.30
2018-08-20T06:49:57.567Z,92.00
2018-08-20T06:52:26.391Z,91.80
2018-08-20T06:54:54.836Z,91.70
2018-08-20T06:57:23.857Z,91.70
2018-08-20T06:59:56.827Z,91.80
2018-08-20T07:02:25.371Z,91.60
2018-08-20T07:04:53.704Z,91.50
2018-08-20T07:07:22.235Z,91.40
2018-08-20T07:09:50.580Z,91.40
2018-08-20T07:12:26.423Z,91.20
2018-08-20T07:14:54.913Z,91.60
2018-08-20T07:17:23.232Z,91.20
2018-08-20T07:19:51.586Z,91.10
2018-08-20T07:22:19.841Z,91.00
2018-08-20T07:24:48.257Z,90.70
2018-08-20T07:27:16.627Z,90.40
2018-08-20T07:29:47.305Z,90.30
2018-08-20T07:32:16.593Z,90.50
2018-08-20T07:34:45.918Z,90.70
2018-08-20T07:37:15.399Z,90.40
2018-08-20T07:39:44.975Z,90.30
2018-08-20T07:42:13.429Z,90.10
2018-08-20T07:44:55.823Z,90.00
2018-08-20T07:47:24.171Z,90.30
2018-08-20T07:49:52.482Z,90.40
2018-08-20T07:52:22.055Z,90.20
2018-08-20T07:57:33.110Z,90.60
2018-08-20T08:00:10.986Z,90.40
2018-08-20T08:02:40.205Z,90.20
2018-08-20T08:05:09.768Z,90.20
2018-08-20T08:07:38.293Z,90.20
2018-08-20T08:10:08.631Z,90.20
2018-08-20T08:12:37.657Z,90.10
2018-08-20T08:15:06.514Z,89.60
2018-08-20T08:17:34.850Z,90.00
2018-08-20T08:20:03.293Z,89.00
2018-08-20T08:22:31.652Z,88.30
2018-08-20T08:25:00.012Z,87.50
2018-08-20T08:27:28.369Z,87.20
2018-08-20T08:29:56.686Z,86.10
2018-08-20T08:32:25.228Z,86.00
2018-08-20T08:34:53.566Z,85.70
2018-08-20T08:37:21.880Z,85.60
2018-08-20T08:39:50.135Z,85.40
2018-08-20T08:42:20.803Z,85.80
2018-08-20T08:44:49.084Z,85.40
2018-08-20T08:47:17.368Z,84.50
2018-08-20T08:49:45.690Z,84.10
2018-08-20T08:52:13.920Z,85.40
2018-08-20T08:54:43.197Z,85.30
2018-08-20T08:57:11.473Z,84.50
2018-08-20T08:59:40.700Z,84.90
2018-08-20T09:02:09.015Z,85.00
2018-08-20T09:04:40.165Z,84.60
2018-08-20T09:07:08.491Z,84.60
2018-08-20T09:09:36.802Z,85.30
2018-08-20T09:12:05.086Z,85.00
2018-08-20T09:14:33.349Z,84.40
2018-08-20T09:17:01.614Z,83.90
2018-08-20T09:19:30.026Z,82.90
2018-08-20T09:21:58.295Z,82.40
2018-08-20T09:24:27.321Z,82.80
2018-08-20T09:26:56.674Z,82.60
2018-08-20T09:29:25.159Z,82.40
2018-08-20T09:31:53.555Z,82.10
2018-08-20T09:34:21.831Z,80.40
2018-08-20T09:36:50.117Z,79.90
2018-08-20T09:39:18.438Z,81.00
2018-08-20T09:41:48.594Z,80.80
2018-08-20T09:44:20.554Z,80.70
2018-08-20T09:46:50.502Z,78.60
2018-08-20T09:49:20.399Z,79.10
2018-08-20T09:51:50.756Z,76.30
2018-08-20T09:54:21.612Z,73.90
2018-08-20T09:56:52.584Z,72.80
2018-08-20T09:59:23.478Z,72.90
2018-08-20T10:01:53.867Z,72.90
2018-08-20T10:04:23.861Z,70.90
2018-08-20T10:06:54.292Z,72.10
2018-08-20T10:09:24.631Z,72.20
2018-08-20T10:11:54.396Z,71.60
2018-08-20T10:14:24.121Z,71.70
2018-08-20T10:16:53.901Z,72.60
2018-08-20T10:19:23.790Z,73.00
2018-08-20T10:21:53.755Z,74.10
2018-08-20T10:24:23.690Z,73.60
2018-08-20T10:26:52.273Z,74.60
2018-08-20T10:29:21.632Z,72.60
2018-08-20T10:31:51.026Z,71.50
2018-08-20T10:34:21.656Z,70.00
2018-08-20T10:36:51.510Z,71.40
2018-08-20T10:39:24.097Z,72.50
2018-08-20T10:41:53.172Z,71.60
2018-08-20T10:44:22.377Z,71.50
2018-08-20T10:46:54.049Z,70.70
2018-08-20T10:49:26.441Z,71.70
2018-08-20T10:52:06.284Z,71.30
2018-08-20T10:54:39.196Z,70.90
2018-08-20T10:57:09.205Z,70.60
2018-08-20T10:59:40.172Z,70.70
2018-08-20T11:02:14.485Z,69.10
2018-08-20T11:04:50.215Z,68.80
2018-08-20T11:07:19.803Z,68.70
2018-08-20T11:09:49.417Z,68.80
2018-08-20T11:12:22.168Z,67.40
2018-08-20T11:15:16.511Z,67.10
2018-08-20T11:17:48.834Z,67.80
2018-08-20T11:20:19.027Z,68.00
2018-08-20T11:22:49.498Z,67.00
2018-08-20T11:25:21.233Z,69.00
2018-08-20T11:27:54.731Z,68.80
2018-08-20T11:30:32.013Z,67.70
2018-08-20T11:33:04.052Z,66.50
2018-08-20T11:35:39.819Z,68.30
2018-08-20T11:38:12.518Z,68.00
2018-08-20T11:40:41.670Z,68.00
2018-08-20T11:43:15.540Z,67.00
2018-08-20T11:45:46.586Z,66.70
2018-08-20T11:48:19.377Z,65.90
2018-08-20T11:50:51.547Z,66.30
2018-08-20T11:53:22.584Z,68.10
2018-08-20T11:55:53.854Z,65.00
2018-08-20T11:58:25.149Z,64.70
2018-08-20T12:00:56.224Z,65.80
2018-08-20T12:03:30.311Z,65.90
2018-08-20T12:06:02.002Z,67.40
2018-08-20T12:08:32.153Z,68.30
2018-08-20T12:11:03.237Z,66.30
2018-08-20T12:13:33.599Z,65.00
2018-08-20T12:16:04.719Z,63.60
2018-08-20T12:18:35.374Z,65.80
2018-08-20T12:21:08.557Z,64.80
2018-08-20T12:23:39.127Z,65.00
2018-08-20T12:26:09.619Z,65.50
2018-08-20T12:28:45.266Z,64.30
2018-08-20T12:31:25.252Z,63.00
2018-08-20T12:34:05.863Z,60.20
2018-08-20T12:36:42.798Z,61.10
2018-08-20T12:39:27.766Z,63.60
2018-08-20T12:42:00.327Z,63.10
2018-08-20T12:44:30.351Z,61.40
2018-08-20T12:46:58.763Z,62.40
2018-08-20T12:49:27.060Z,64.40
2018-08-20T12:51:55.323Z,67.30
2018-08-20T12:54:23.595Z,67.20
2018-08-20T12:56:52.026Z,66.60
2018-08-20T12:59:20.348Z,65.20
2018-08-20T13:01:48.634Z,62.50
2018-08-20T13:04:16.907Z,62.70
2018-08-20T13:06:45.247Z,62.10
2018-08-20T13:09:13.509Z,60.30
2018-08-20T13:11:41.839Z,60.20
2018-08-20T13:14:10.107Z,61.50
2018-08-20T13:16:39.737Z,59.60
2018-08-20T13:19:08.136Z,58.90
2018-08-20T13:21:47.417Z,60.10
2018-08-20T13:24:15.786Z,60.20
2018-08-20T13:26:44.523Z,59.40
2018-08-20T13:29:12.803Z,59.30
2018-08-20T13:31:41.196Z,59.80
2018-08-20T13:34:09.459Z,59.30
2018-08-20T13:36:37.728Z,59.90
2018-08-20T13:39:07.782Z,58.00
2018-08-20T13:41:36.267Z,58.10
2018-08-20T13:44:04.598Z,58.20
2018-08-20T13:46:33.282Z,58.10
2018-08-20T13:49:05.546Z,59.20
2018-08-20T13:51:34.565Z,58.90
2018-08-20T13:54:02.863Z,58.10
2018-08-20T13:56:31.548Z,57.90
2018-08-20T13:59:01.738Z,58.60
2018-08-20T14:01:29.989Z,59.00
2018-08-20T14:03:58.357Z,59.00
2018-08-20T14:06:26.657Z,57.40
2018-08-20T14:08:54.931Z,58.50
2018-08-20T14:11:23.882Z,58.30
2018-08-20T14:13:52.166Z,57.60
2018-08-20T14:16:20.447Z,58.00
2018-08-20T14:18:48.711Z,57.70
2018-08-20T14:21:17.217Z,58.00
2018-08-20T14:23:46.696Z,57.00
2018-08-20T14:26:14.979Z,58.30
2018-08-20T14:28:43.702Z,58.20
2018-08-20T14:31:11.963Z,59.50
2018-08-20T14:33:40.335Z,59.60
2018-08-20T14:36:09.226Z,60.90
2018-08-20T14:38:37.702Z,61.00
2018-08-20T14:41:06.366Z,60.70
2018-08-20T14:43:34.696Z,59.50
2018-08-20T14:46:08.304Z,58.20
2018-08-20T14:48:36.576Z,57.60
2018-08-20T14:51:04.859Z,58.80
2018-08-20T14:53:33.143Z,58.60
2018-08-20T14:56:01.407Z,59.10
2018-08-20T14:58:29.987Z,57.90
2018-08-20T15:00:58.252Z,57.10
2018-08-20T15:03:26.498Z,58.00
2018-08-20T15:05:54.870Z,59.00
2018-08-20T15:08:23.135Z,56.80
2018-08-20T15:10:51.817Z,58.20
2018-08-20T15:13:20.083Z,58.70
2018-08-20T15:15:48.450Z,56.90
2018-08-20T15:18:16.608Z,57.50
2018-08-20T15:20:44.962Z,56.70
2018-08-20T15:23:13.809Z,57.40
2018-08-20T15:25:42.111Z,57.40
2018-08-20T15:28:10.441Z,57.00
2018-08-20T15:30:38.727Z,57.30
2018-08-20T15:33:07.402Z,56.30
2018-08-20T15:35:35.725Z,56.20
2018-08-20T15:38:04.600Z,56.20
2018-08-20T15:40:33.856Z,55.00
2018-08-20T15:43:03.077Z,54.60
2018-08-20T15:45:34.531Z,54.10
2018-08-20T15:48:04.784Z,52.10
2018-08-20T15:50:39.119Z,50.10
2018-08-20T15:53:10.553Z,48.40
2018-08-20T15:55:41.941Z,45.20
2018-08-20T15:58:18.830Z,44.10
2018-08-20T16:00:47.879Z,42.30
2018-08-20T16:03:16.308Z,43.00
2018-08-20T16:05:45.189Z,46.90
2018-08-20T16:08:13.792Z,45.20
2018-08-20T16:10:42.729Z,43.70
2018-08-20T16:13:12.681Z,43.80
2018-08-20T16:15:41.716Z,43.80
2018-08-20T16:18:10.377Z,41.80
2018-08-20T16:20:40.201Z,40.80
2018-08-20T16:23:13.299Z,40.70
2018-08-20T16:28:26.872Z,42.20
2018-08-20T16:31:11.677Z,41.30
2018-08-20T16:33:43.057Z,40.90
2018-08-20T16:36:24.809Z,42.20
2018-08-20T16:39:20.904Z,42.40
2018-08-20T16:42:20.828Z,41.70
2018-08-20T16:45:11.532Z,41.80
2018-08-20T16:48:10.685Z,42.90
2018-08-20T16:51:06.029Z,47.60
2018-08-20T16:53:41.957Z,51.20
2018-08-20T16:56:36.436Z,53.20
2018-08-20T16:59:30.623Z,55.40
2018-08-20T17:02:26.987Z,56.80
2018-08-20T17:05:28.459Z,58.70
2018-08-20T17:13:59.752Z,65.20
2018-08-20T17:16:56.425Z,66.00
2018-08-20T17:19:52.575Z,65.30
2018-08-20T17:25:52.934Z,66.60
2018-08-20T17:28:48.695Z,67.10
2018-08-20T17:34:33.444Z,68.70
2018-08-20T17:43:00.113Z,71.50
2018-08-20T17:46:12.676Z,71.90
2018-08-20T17:49:04.172Z,71.60
2018-08-20T17:51:48.407Z,73.20
2018-08-20T17:54:20.028Z,72.70
2018-08-20T17:56:51.049Z,73.90
2018-08-20T17:59:38.347Z,73.40
2018-08-20T18:02:39.675Z,73.70
2018-08-20T18:09:02.741Z,74.40
2018-08-20T18:11:31.261Z,74.80
2018-08-20T18:13:59.642Z,75.60
2018-08-20T18:16:29.317Z,75.90
2018-08-20T18:19:00.362Z,76.20
2018-08-20T18:21:29.668Z,77.00
2018-08-20T18:24:00.290Z,76.80
2018-08-20T18:26:37.220Z,76.90
2018-08-20T18:29:09.493Z,78.50
2018-08-20T18:31:41.041Z,79.20
2018-08-20T18:38:02.302Z,80.90
2018-08-20T18:41:09.457Z,80.80
2018-08-20T18:44:08.263Z,80.90
2018-08-20T18:46:42.330Z,81.80
2018-08-20T18:49:10.798Z,81.70
2018-08-20T18:51:49.234Z,83.70
2018-08-20T18:54:19.169Z,82.70
2018-08-20T18:56:55.460Z,82.40
2018-08-20T18:59:36.589Z,82.70
2018-08-20T19:02:07.245Z,82.70
2018-08-20T19:04:50.729Z,83.30
2018-08-20T19:07:37.806Z,84.00
2018-08-20T19:17:08.038Z,86.60
2018-08-20T19:28:10.575Z,85.50
2018-08-20T19:37:14.441Z,84.30
2018-08-20T19:42:47.980Z,85.00
2018-08-20T19:45:26.055Z,85.20
2018-08-20T19:47:56.171Z,86.00
2018-08-20T19:50:28.149Z,86.10
2018-08-20T19:53:25.390Z,86.60
2018-08-20T19:55:57.624Z,87.10
2018-08-20T19:58:33.318Z,87.20
2018-08-20T20:01:20.063Z,87.20
2018-08-20T20:18:18.446Z,88.40
2018-08-20T20:24:44.674Z,89.30
2018-08-20T20:27:37.465Z,88.80
2018-08-20T20:30:18.600Z,88.20
2018-08-20T20:36:41.127Z,87.50
2018-08-20T20:39:27.755Z,88.30
2018-08-20T20:42:06.989Z,88.50
2018-08-20T20:44:45.273Z,89.00
2018-08-20T20:47:36.045Z,88.50
2018-08-20T20:53:46.500Z,88.60
2018-08-20T20:56:14.802Z,89.40
2018-08-20T20:58:43.216Z,89.20
2018-08-20T21:01:12.955Z,89.60
2018-08-20T21:03:41.324Z,90.50
2018-08-20T21:06:09.741Z,90.20
2018-08-20T21:08:44.029Z,90.80
2018-08-20T21:11:13.673Z,90.70
2018-08-20T21:13:42.796Z,90.80
2018-08-20T21:16:12.640Z,91.00
2018-08-20T21:18:50.148Z,91.10
2018-08-20T21:21:19.085Z,91.30
2018-08-20T21:23:47.447Z,91.50
2018-08-20T21:26:15.846Z,91.50
2018-08-20T21:28:47.452Z,91.60
2018-08-20T21:31:17.084Z,91.70
2018-08-20T21:33:49.475Z,91.90
2018-08-20T21:36:19.629Z,91.70
2018-08-20T21:38:50.686Z,91.70
2018-08-20T21:41:29.552Z,91.90
2018-08-20T21:43:57.963Z,92.10
2018-08-20T21:46:26.290Z,92.30
2018-08-20T21:48:54.615Z,92.50
2018-08-20T21:51:29.043Z,92.60
2018-08-20T21:53:57.620Z,92.80
2018-08-20T21:56:35.912Z,92.80
2018-08-20T21:59:04.283Z,92.90
2018-08-20T22:01:32.738Z,92.90
2018-08-20T22:04:01.051Z,93.00
2018-08-20T22:06:29.400Z,93.00
2018-08-20T22:08:58.386Z,93.00
2018-08-20T22:11:26.699Z,93.10
2018-08-20T22:13:55.254Z,93.10
2018-08-20T22:16:24.410Z,93.10
2018-08-20T22:18:54.947Z,93.20
2018-08-20T22:21:23.393Z,93.20
2018-08-20T22:23:51.838Z,93.20
2018-08-20T22:26:21.230Z,93.10
2018-08-20T22:28:51.323Z,93.10
2018-08-20T22:31:20.024Z,93.00
2018-08-20T22:33:55.786Z,92.90
2018-08-20T22:36:24.598Z,92.80
2018-08-20T22:38:54.099Z,92.80
2018-08-20T22:41:23.662Z,93.20
2018-08-20T22:43:52.055Z,92.90
2018-08-20T22:46:21.602Z,92.80
2018-08-20T22:48:50.831Z,92.70
2018-08-20T22:51:19.853Z,92.60
2018-08-20T22:53:51.605Z,92.60
2018-08-20T22:56:28.385Z,92.60
2018-08-20T22:59:07.866Z,92.50
2018-08-20T23:01:36.188Z,92.60
2018-08-20T23:04:04.972Z,92.80
2018-08-20T23:06:33.251Z,92.90
2018-08-20T23:09:18.400Z,92.70
2018-08-20T23:11:52.024Z,92.60
2018-08-20T23:14:21.196Z,92.80
2018-08-20T23:16:52.049Z,92.60
2018-08-20T23:19:21.250Z,92.50
2018-08-20T23:21:54.012Z,92.60
2018-08-20T23:24:23.317Z,92.70
2018-08-20T23:26:52.265Z,92.90
2018-08-20T23:29:21.280Z,93.00
2018-08-20T23:31:50.942Z,93.00
2018-08-20T23:34:19.695Z,93.00
2018-08-20T23:36:48.357Z,92.90
2018-08-20T23:39:17.992Z,92.80
2018-08-20T23:41:46.995Z,93.10
2018-08-20T23:44:16.648Z,93.20
2018-08-20T23:46:49.923Z,93.30
2018-08-20T23:49:19.108Z,93.40
2018-08-20T23:51:47.402Z,93.30
2018-08-20T23:54:15.695Z,93.50
2018-08-20T23:56:43.971Z,93.60
2018-08-20T23:59:13.329Z,93.70
